Date,TemperatureHighF,TemperatureAvgF,TemperatureLowF,DewpointHighF,DewpointAvgF,DewpointLowF,HumidityHigh,HumidityAvg,HumidityLow,PressureMaxIn,PressureMinIn,WindSpeedMaxMPH,WindSpeedAvgMPH,GustSpeedMaxMPH,PrecipitationSumIn
2013-8-1,73.2,65.9,63.0,64.0,61.0,59.1,90,84,73,30.04,29.93,5,2,8,0.00
2013-8-2,72.2,66.3,62.5,63.7,61.1,59.4,90,84,74,29.99,29.93,3,1,6,0.00
2013-8-3,73.5,66.3,62.9,65.5,61.4,59.0,89,84,74,30.02,29.96,3,1,5,0.00
2013-8-4,73.9,66.6,63.2,64.3,61.5,59.6,91,84,72,30.03,29.95,5,2,10,0.00
2013-8-5,72.6,64.8,61.5,64.2,60.8,59.5,93,87,75,30.03,29.96,5,1,9,0.00
2013-8-6,71.2,65.4,62.4,63.3,60.6,58.6,91,85,74,30.07,29.99,8,2,11,0.00
2013-8-7,73.7,66.1,61.9,64.1,61.0,59.2,91,84,71,30.10,30.00,9,2,11,0.00
2013-8-8,74.6,64.4,58.6,64.6,60.6,56.6,94,88,71,30.03,29.93,9,1,11,0.00
2013-8-9,70.4,64.6,61.2,62.8,60.1,58.6,92,85,75,29.99,29.94,2,0,6,0.00
2013-8-10,70.9,64.8,61.4,61.7,59.5,57.3,89,83,72,30.06,29.98,3,1,6,0.00
2013-8-11,74.2,66.5,63.0,63.4,61.1,59.0,90,83,69,30.02,29.92,5,1,9,0.00
2013-8-12,71.4,65.9,62.6,63.5,61.3,59.6,90,85,74,30.00,29.92,4,0,5,0.00
2013-8-13,71.3,65.0,62.7,65.2,61.7,60.6,93,89,80,30.00,29.91,3,0,9,0.00
2013-8-14,69.7,64.5,62.8,65.0,61.6,60.3,93,90,85,29.95,29.87,3,0,5,0.00
2013-8-15,69.3,65.1,62.6,65.3,62.6,61.2,95,92,85,29.96,29.91,3,1,4,0.00
2013-8-16,76.3,68.2,62.9,68.6,64.4,60.8,94,88,76,29.99,29.92,6,1,8,0.00
2013-8-17,69.1,66.1,64.0,64.9,63.2,61.4,94,91,85,29.97,29.84,10,2,12,0.00
2013-8-18,68.1,65.5,63.5,63.4,62.4,61.4,93,90,83,29.93,29.85,5,1,6,0.00
2013-8-19,72.6,66.8,65.1,65.4,63.0,62.0,92,88,77,29.98,29.89,4,1,5,0.00
2013-8-20,70.3,66.4,63.8,64.9,63.0,61.4,92,89,83,29.95,29.85,11,4,13,0.00
2013-8-21,69.9,65.3,61.3,64.3,62.1,59.3,94,90,81,29.94,29.85,9,3,12,0.00
2013-8-22,72.8,65.8,60.8,64.6,61.6,58.8,93,87,73,29.94,29.83,7,2,11,0.00
2013-8-23,69.2,65.2,60.8,64.8,62.0,58.8,94,90,84,29.89,29.76,7,2,10,0.01
2013-8-24,71.6,63.3,61.2,65.1,61.0,59.7,96,92,80,29.91,29.80,6,1,8,0.00
2013-8-25,70.4,63.6,59.3,64.7,61.1,57.9,96,92,82,29.94,29.87,7,1,11,0.00
2013-8-26,71.5,66.6,62.3,66.4,63.0,60.2,94,88,74,29.94,29.83,4,1,9,0.00
2013-8-27,77.8,68.6,64.9,70.1,64.6,62.2,93,87,74,29.86,29.79,6,1,9,0.00
2013-8-28,71.2,67.4,63.7,66.4,63.8,61.9,94,88,80,29.90,29.79,7,2,10,0.00
2013-8-29,75.7,68.9,63.7,70.2,64.6,61.6,94,86,74,29.93,29.88,3,1,8,0.00
2013-8-30,84.7,75.8,67.6,70.0,67.1,63.3,89,75,60,29.98,29.90,5,1,9,0.00
2013-8-31,77.5,74.2,72.0,70.5,68.4,67.0,90,82,75,29.97,29.89,5,1,7,0.00